Association Sportive et Culturelle de l' Aéroport de Blagnac

Section Vol Moteur

Bienvenue sur le site ASCAB Vol Moteur

LFBO TOULOUSE-BLAGNAC

METAR :
2022/08/13 21:00 LFBO 132100Z AUTO 19002KT 9999 ///CB 29/16 Q1010 TEMPO 29020G30KT 4000 TSRA

TAF :
2022/08/13 18:22 TAF LFBO 131700Z 1318/1424 19006KT CAVOK TEMPO 1318/1322 VRB15G25KT TSRA SCT080CB BECMG 1322/1324 29008KT PROB40 TEMPO 1322/1324 29020G30KT 4000 TSRA SCT040TCU SCT060CB PROB40 TEMPO 1400/1407 4000 SHRA BKN012 FEW060CB PROB30 TEMPO 1402/1406 TSRA SCT050CB PROB30 TEMPO 1407/1411 -SHRA BKN020 SCT030TCU PROB40 TEMPO 1416/1424 SHRA SCT050TCU PROB30 TEMPO 1417/1421 4000 TSRA SCT060CB